Time;durP1;ratioP1;P1;durP2;ratioP2;P2;SDS_P1;SDS_P2;PMS_P1;PMS_P2;Temp;Humidity;BMP_temperature;BMP_pressure;BME280_temperature;BME280_humidity;BME280_pressure;Samples;Min_cycle;Max_cycle;Signal;HPM_P1;HPM_P2
2023/04/07 00:00:59;;;;;;;18.40;15.00;;;;;;;2.93;70.00;100613.04;112896;1239;21967;-79
2023/04/07 00:03:29;;;;;;;17.20;14.90;;;;;;;2.94;69.97;100613.71;112544;1239;21962;-79
2023/04/07 00:05:59;;;;;;;19.40;15.70;;;;;;;2.94;70.13;100610.10;112684;1239;21964;-80
2023/04/07 00:08:28;;;;;;;26.00;18.70;;;;;;;2.94;70.19;100602.88;113152;1239;23624;-79
2023/04/07 00:10:57;;;;;;;23.90;19.20;;;;;;;2.94;70.14;100599.79;112889;1239;21935;-80
2023/04/07 00:13:26;;;;;;;20.70;18.60;;;;;;;2.93;70.24;100593.77;112957;1233;22099;-79
2023/04/07 00:15:57;;;;;;;21.10;17.60;;;;;;;2.95;70.30;100595.50;113672;1231;23019;-79
2023/04/07 00:18:27;;;;;;;20.30;18.10;;;;;;;2.93;70.32;100590.17;113593;1233;23552;-81
2023/04/07 00:20:58;;;;;;;19.40;17.40;;;;;;;2.94;70.45;100589.98;113403;1233;23597;-80
2023/04/07 00:23:27;;;;;;;18.80;16.70;;;;;;;2.96;70.51;100587.92;113444;1233;22724;-80
2023/04/07 00:25:56;;;;;;;16.60;14.80;;;;;;;2.95;70.49;100585.53;113565;1233;21960;-81
2023/04/07 00:28:25;;;;;;;17.80;14.70;;;;;;;2.93;70.40;100579.85;113455;1233;23597;-81
2023/04/07 00:30:55;;;;;;;16.20;14.30;;;;;;;2.92;70.57;100575.20;113872;1232;23006;-80
2023/04/07 00:33:24;;;;;;;17.50;15.80;;;;;;;2.92;70.67;100576.42;113607;1233;21920;-80
2023/04/07 00:35:56;;;;;;;15.80;13.60;;;;;;;2.91;70.71;100572.64;113682;1233;21893;-79
2023/04/07 00:38:26;;;;;;;17.40;15.60;;;;;;;2.92;70.75;100566.98;113723;1233;22043;-79
2023/04/07 00:40:59;;;;;;;14.80;13.20;;;;;;;2.92;70.86;100562.31;113723;1233;23001;-80
2023/04/07 00:43:28;;;;;;;20.10;13.70;;;;;;;2.92;70.87;100558.20;113548;1233;22020;-80
2023/04/07 00:45:58;;;;;;;15.20;13.80;;;;;;;2.93;70.97;100555.10;113631;1233;23422;-80
2023/04/07 00:48:28;;;;;;;16.30;14.60;;;;;;;2.95;71.01;100549.25;113584;1233;23579;-80
2023/04/07 00:50:57;;;;;;;16.90;15.20;;;;;;;2.94;71.05;100544.95;113634;1233;23355;-81
2023/04/07 00:53:26;;;;;;;16.30;14.70;;;;;;;2.93;71.05;100542.89;113543;1233;21933;-80
2023/04/07 00:55:56;;;;;;;17.60;15.90;;;;;;;2.95;71.18;100544.44;113759;1233;21932;-81
2023/04/07 00:58:25;;;;;;;17.40;15.60;;;;;;;2.98;71.16;100545.64;113637;1233;22992;-81
2023/04/07 01:01:07;;;;;;;16.70;15.00;;;;;;;2.99;71.15;100544.95;113598;1233;23561;-78
2023/04/07 01:04:18;;;;;;;15.90;14.40;;;;;;;3.01;71.38;100543.55;113611;1233;21947;-81
2023/04/07 01:06:50;;;;;;;17.30;15.60;;;;;;;3.01;71.38;100543.38;113748;1233;21953;-79
2023/04/07 01:09:37;;;;;;;18.70;17.00;;;;;;;3.05;71.37;100542.15;113619;1233;21989;-80
2023/04/07 01:12:25;;;;;;;17.60;16.10;;;;;;;3.07;71.45;100540.26;113667;1233;21964;-80
2023/04/07 01:15:03;;;;;;;19.80;17.80;;;;;;;3.07;71.27;100538.88;113801;1233;23668;-80
2023/04/07 01:17:47;;;;;;;20.40;18.50;;;;;;;3.03;71.36;100533.58;113344;1233;21931;-80
2023/04/07 01:20:25;;;;;;;23.00;17.90;;;;;;;3.03;71.42;100534.26;113650;1233;21978;-80
2023/04/07 01:23:06;;;;;;;20.50;18.50;;;;;;;3.05;71.58;100530.64;113664;1233;21958;-81
2023/04/07 01:26:17;;;;;;;21.10;18.90;;;;;;;3.09;71.59;100528.73;113683;1233;22952;-82
2023/04/07 01:29:25;;;;;;;19.50;17.70;;;;;;;3.12;71.61;100523.39;113477;1233;21928;-78
2023/04/07 01:31:57;;;;;;;20.80;19.00;;;;;;;3.12;71.71;100520.80;113798;1233;22017;-81
2023/04/07 01:34:29;;;;;;;23.00;20.50;;;;;;;3.14;71.59;100521.48;113523;1233;21942;-82
2023/04/07 01:37:01;;;;;;;22.00;19.80;;;;;;;3.14;71.50;100520.63;113533;1233;22080;-81
2023/04/07 01:39:31;;;;;;;20.20;18.20;;;;;;;3.15;71.54;100518.73;113448;1233;22976;-81
2023/04/07 01:42:04;;;;;;;19.20;17.30;;;;;;;3.14;71.46;100514.44;113715;1231;21994;-81
2023/04/07 01:44:34;;;;;;;20.90;18.90;;;;;;;3.14;71.49;100513.05;113473;1233;22705;-80
2023/04/07 01:47:05;;;;;;;19.90;17.90;;;;;;;3.11;71.48;100510.84;113516;1233;23559;-81
2023/04/07 01:49:36;;;;;;;18.30;16.60;;;;;;;3.09;71.41;100510.34;113566;1233;21934;-81
2023/04/07 01:52:07;;;;;;;17.60;16.00;;;;;;;3.07;71.48;100510.52;113642;1233;21943;-81
2023/04/07 01:54:36;;;;;;;20.30;18.30;;;;;;;3.07;71.77;100507.41;113284;1231;23021;-81
2023/04/07 01:57:05;;;;;;;18.90;17.10;;;;;;;3.07;71.75;100508.09;113541;1233;22781;-80
2023/04/07 01:59:35;;;;;;;17.50;15.90;;;;;;;3.08;71.61;100508.95;113486;1233;23588;-80
2023/04/07 02:02:05;;;;;;;19.40;17.70;;;;;;;3.09;71.81;100506.03;113074;1234;23188;-81
2023/04/07 02:04:44;;;;;;;21.20;19.00;;;;;;;3.10;71.75;100506.04;113286;1237;22004;-81
2023/04/07 02:07:21;;;;;;;19.40;17.40;;;;;;;3.11;71.80;100509.30;113145;1237;22398;-80
2023/04/07 02:09:57;;;;;;;17.70;15.90;;;;;;;3.13;71.72;100506.70;112961;1237;23821;-81
2023/04/07 02:12:29;;;;;;;18.80;17.10;;;;;;;3.14;71.77;100505.33;112989;1237;21954;-80
2023/04/07 02:15:11;;;;;;;18.30;16.50;;;;;;;3.13;71.76;100504.80;113084;1237;23018;-80
2023/04/07 02:17:50;;;;;;;20.20;18.30;;;;;;;3.14;71.77;100504.81;113112;1233;21998;-81
2023/04/07 02:20:22;;;;;;;19.90;18.10;;;;;;;3.12;71.78;100502.06;113308;1233;21943;-79
2023/04/07 02:22:52;;;;;;;22.20;20.20;;;;;;;3.12;71.81;100500.52;113422;1233;23581;-79
2023/04/07 02:25:30;;;;;;;19.50;17.80;;;;;;;3.12;71.95;100498.29;113373;1233;22222;-79
2023/04/07 02:28:00;;;;;;;20.40;18.60;;;;;;;3.13;71.93;100497.08;113424;1233;22055;-80
2023/04/07 02:30:31;;;;;;;21.30;19.10;;;;;;;3.16;72.01;100497.23;113548;1233;21953;-79
2023/04/07 02:33:00;;;;;;;21.60;19.50;;;;;;;3.19;72.01;100494.98;113388;1233;22424;-79
2023/04/07 02:35:29;;;;;;;19.40;17.70;;;;;;;3.21;72.01;100495.48;113560;1233;21973;-81
2023/04/07 02:37:58;;;;;;;18.50;16.60;;;;;;;3.22;71.93;100499.44;113553;1233;22138;-80
2023/04/07 02:40:27;;;;;;;18.30;16.50;;;;;;;3.23;72.02;100495.81;113626;1233;23565;-78
2023/04/07 02:42:57;;;;;;;18.30;16.70;;;;;;;3.24;72.07;100494.95;113449;1233;21941;-79
2023/04/07 02:45:26;;;;;;;17.60;15.90;;;;;;;3.24;72.07;100492.88;113448;1233;21959;-79
2023/04/07 02:47:56;;;;;;;17.10;15.30;;;;;;;3.25;72.07;100491.16;113542;1233;23795;-79
2023/04/07 02:50:25;;;;;;;19.50;17.80;;;;;;;3.25;71.97;100490.64;113671;1233;21942;-80
2023/04/07 02:52:54;;;;;;;21.30;19.30;;;;;;;3.27;72.14;100487.88;113601;1233;24164;-78
2023/04/07 02:55:23;;;;;;;20.70;18.70;;;;;;;3.29;72.07;100487.35;113694;1233;21928;-82
2023/04/07 02:57:52;;;;;;;20.20;18.20;;;;;;;3.27;71.89;100487.88;113479;1233;23567;-83
2023/04/07 03:00:33;;;;;;;20.40;18.40;;;;;;;3.25;72.06;100488.58;113665;1233;23670;-79
2023/04/07 03:03:15;;;;;;;18.50;16.80;;;;;;;3.25;72.23;100488.58;113593;1233;23613;-80
2023/04/07 03:05:56;;;;;;;20.60;18.80;;;;;;;3.24;72.27;100487.71;113594;1233;23143;-80
2023/04/07 03:08:26;;;;;;;21.80;19.70;;;;;;;3.26;72.13;100488.41;113759;1233;21948;-80
2023/04/07 03:10:56;;;;;;;22.40;20.40;;;;;;;3.26;72.10;100489.78;113568;1233;23671;-80
2023/04/07 03:13:29;;;;;;;23.90;20.90;;;;;;;3.28;72.14;100489.95;113582;1233;24345;-79
2023/04/07 03:15:58;;;;;;;22.80;20.70;;;;;;;3.32;72.10;100489.06;113551;1233;21933;-79
2023/04/07 03:18:30;;;;;;;21.70;19.70;;;;;;;3.34;72.24;100491.11;113434;1233;23019;-82
2023/04/07 03:21:01;;;;;;;21.50;19.60;;;;;;;3.33;72.02;100486.98;113662;1233;21932;-80
2023/04/07 03:23:32;;;;;;;20.80;18.70;;;;;;;3.36;72.14;100488.35;113756;1233;23016;-83
2023/04/07 03:26:01;;;;;;;24.00;21.60;;;;;;;3.37;72.10;100486.63;113614;1233;21939;-80
2023/04/07 03:28:34;;;;;;;22.40;20.20;;;;;;;3.38;72.09;100488.34;113478;1233;21934;-80
2023/04/07 03:31:03;;;;;;;22.30;20.30;;;;;;;3.40;72.10;100486.61;113632;1233;21951;-80
2023/04/07 03:33:33;;;;;;;22.60;20.50;;;;;;;3.41;72.11;100486.77;113637;1233;22163;-82
2023/04/07 03:36:02;;;;;;;23.00;20.90;;;;;;;3.39;72.01;100483.33;113622;1233;21960;-80
2023/04/07 03:38:32;;;;;;;24.70;22.50;;;;;;;3.37;71.99;100481.29;113601;1233;22335;-81
2023/04/07 03:41:02;;;;;;;26.00;23.30;;;;;;;3.35;72.12;100477.87;113637;1233;23012;-80
2023/04/07 03:43:31;;;;;;;24.80;22.30;;;;;;;3.35;72.26;100476.66;113417;1233;22997;-80
2023/04/07 03:46:02;;;;;;;24.50;22.00;;;;;;;3.36;72.21;100473.73;113570;1233;21934;-81
2023/04/07 03:48:32;;;;;;;22.70;20.50;;;;;;;3.39;72.35;100472.34;113459;1233;21932;-79
2023/04/07 03:51:08;;;;;;;23.00;20.70;;;;;;;3.38;72.34;100470.27;113598;1233;21957;-81
2023/04/07 03:53:39;;;;;;;27.40;24.60;;;;;;;3.39;72.35;100475.77;113762;1233;21954;-80
2023/04/07 03:56:46;;;;;;;26.50;23.70;;;;;;;3.37;72.37;100474.06;113474;1233;21900;-79
2023/04/07 03:59:18;;;;;;;27.40;24.30;;;;;;;3.37;72.40;100472.52;113708;1233;21950;-80
2023/04/07 04:02:00;;;;;;;28.90;25.70;;;;;;;3.36;72.33;100470.28;113786;1233;21929;-80
2023/04/07 04:04:29;;;;;;;31.10;27.80;;;;;;;3.35;72.30;100472.02;113644;1233;21961;-81
2023/04/07 04:06:59;;;;;;;28.90;25.60;;;;;;;3.35;72.52;100478.20;113622;1233;23707;-82
2023/04/07 04:09:49;;;;;;;31.10;28.10;;;;;;;3.34;72.62;100475.62;113770;1232;21945;-81
2023/04/07 04:12:18;;;;;;;30.70;27.70;;;;;;;3.34;72.58;100475.62;113581;1233;21954;-80
2023/04/07 04:15:10;;;;;;;34.10;30.70;;;;;;;3.35;72.67;100475.45;113589;1233;21948;-81
2023/04/07 04:17:40;;;;;;;34.10;30.50;;;;;;;3.39;72.76;100474.05;113739;1233;21985;-81
2023/04/07 04:20:10;;;;;;;30.30;27.20;;;;;;;3.41;72.74;100474.90;113577;1233;21937;-80
2023/04/07 04:22:43;;;;;;;28.40;25.40;;;;;;;3.41;72.69;100478.16;113481;1233;21961;-79
2023/04/07 04:25:13;;;;;;;27.70;25.10;;;;;;;3.41;72.77;100476.96;113480;1233;21935;-81
2023/04/07 04:27:45;;;;;;;29.10;26.20;;;;;;;3.43;72.94;100476.59;113606;1233;23381;-78
2023/04/07 04:30:32;;;;;;;27.30;24.60;;;;;;;3.44;72.85;100475.73;113625;1233;24386;-79
2023/04/07 04:33:03;;;;;;;26.70;24.00;;;;;;;3.44;72.83;100476.26;113552;1233;21932;-77
2023/04/07 04:35:41;;;;;;;28.70;26.00;;;;;;;3.42;73.02;100475.92;113664;1233;21955;-77
2023/04/07 04:38:13;;;;;;;28.80;26.10;;;;;;;3.44;73.06;100474.20;113694;1233;22158;-79
2023/04/07 04:40:45;;;;;;;27.30;24.60;;;;;;;3.47;73.11;100474.52;113618;1233;22010;-79
2023/04/07 04:43:16;;;;;;;28.70;26.00;;;;;;;3.50;73.08;100478.11;113534;1233;21958;-78
2023/04/07 04:45:46;;;;;;;28.00;25.40;;;;;;;3.50;73.14;100480.00;113841;1233;23763;-79
2023/04/07 04:48:16;;;;;;;28.10;25.30;;;;;;;3.50;73.09;100481.89;113480;1233;23718;-81
2023/04/07 04:50:45;;;;;;;30.00;27.10;;;;;;;3.52;73.19;100481.54;113375;1233;21940;-79
2023/04/07 04:53:15;;;;;;;29.90;26.90;;;;;;;3.54;73.30;100477.91;113326;1233;22006;-80
2023/04/07 04:55:52;;;;;;;29.60;26.20;;;;;;;3.53;73.24;100474.13;113468;1233;21916;-78
2023/04/07 04:58:25;;;;;;;26.50;23.90;;;;;;;3.54;73.32;100474.65;113545;1233;21934;-79
2023/04/07 05:00:58;;;;;;;26.30;23.70;;;;;;;3.53;73.25;100475.85;113511;1233;23587;-78
2023/04/07 05:03:37;;;;;;;22.70;20.40;;;;;;;3.54;73.31;100478.26;113533;1233;21945;-78
2023/04/07 05:06:16;;;;;;;25.10;22.60;;;;;;;3.52;73.30;100475.17;113530;1233;21948;-78
2023/04/07 05:08:46;;;;;;;26.20;23.60;;;;;;;3.51;73.31;100469.50;113770;1233;21893;-79
2023/04/07 05:11:16;;;;;;;26.20;23.80;;;;;;;3.54;73.40;100470.67;113596;1233;22611;-80
2023/04/07 05:13:47;;;;;;;27.80;25.00;;;;;;;3.57;73.49;100467.39;113514;1233;22983;-79
2023/04/07 05:16:17;;;;;;;26.50;24.00;;;;;;;3.60;73.61;100466.50;113363;1233;21959;-78
2023/04/07 05:18:46;;;;;;;26.20;23.50;;;;;;;3.64;73.58;100465.80;113573;1233;21979;-78
2023/04/07 05:21:16;;;;;;;26.10;23.50;;;;;;;3.69;73.69;100467.30;113353;1233;21938;-78
2023/04/07 05:23:45;;;;;;;27.30;24.50;;;;;;;3.71;73.54;100465.21;113770;1233;21966;-78
2023/04/07 05:26:15;;;;;;;28.50;26.00;;;;;;;3.75;73.68;100465.20;113534;1233;21945;-78
2023/04/07 05:28:45;;;;;;;30.00;27.30;;;;;;;3.77;73.69;100464.65;112805;1241;21958;-79
2023/04/07 05:31:17;;;;;;;30.30;27.30;;;;;;;3.81;73.60;100462.05;112697;1241;23095;-80
2023/04/07 05:33:47;;;;;;;28.70;25.90;;;;;;;3.82;73.44;100461.52;112325;1246;21949;-77
2023/04/07 05:36:18;;;;;;;30.10;27.20;;;;;;;3.82;73.42;100463.59;112419;1245;21956;-78
2023/04/07 05:38:47;;;;;;;31.70;28.50;;;;;;;3.84;73.34;100465.98;112361;1246;21951;-77
2023/04/07 05:41:18;;;;;;;32.70;29.40;;;;;;;3.86;73.44;100468.72;112278;1246;21961;-79
2023/04/07 05:43:47;;;;;;;33.20;29.70;;;;;;;3.86;73.48;100469.75;112080;1245;24506;-78
2023/04/07 05:46:17;;;;;;;39.10;33.30;;;;;;;3.85;73.42;100468.20;112126;1239;23762;-78
2023/04/07 05:48:51;;;;;;;35.80;31.90;;;;;;;3.85;73.53;100470.80;112350;1243;22348;-78
2023/04/07 05:51:21;;;;;;;39.00;31.20;;;;;;;3.87;73.49;100467.85;112740;1237;22867;-79
2023/04/07 05:53:51;;;;;;;36.50;30.00;;;;;;;3.92;73.51;100466.09;113139;1237;22841;-78
2023/04/07 05:56:22;;;;;;;35.90;28.00;;;;;;;3.92;73.56;100463.83;113208;1236;23712;-78
2023/04/07 05:58:52;;;;;;;39.80;29.20;;;;;;;3.94;73.61;100461.75;113129;1237;22948;-77
2023/04/07 06:01:21;;;;;;;33.20;26.70;;;;;;;3.95;73.50;100464.16;113035;1237;24094;-78
2023/04/07 06:03:51;;;;;;;32.90;26.60;;;;;;;3.95;73.61;100463.83;113189;1237;23606;-77
2023/04/07 06:06:23;;;;;;;31.70;27.70;;;;;;;3.95;73.54;100464.86;113382;1230;23004;-77
2023/04/07 06:08:52;;;;;;;30.00;26.90;;;;;;;3.98;73.66;100467.76;113536;1233;23054;-78
2023/04/07 06:11:24;;;;;;;31.90;28.50;;;;;;;3.99;73.52;100469.98;113548;1233;21976;-80
2023/04/07 06:13:54;;;;;;;33.00;28.20;;;;;;;4.00;73.64;100468.94;113785;1233;23041;-80
2023/04/07 06:16:23;;;;;;;34.90;29.00;;;;;;;4.01;73.61;100462.90;113364;1236;21964;-80
2023/04/07 06:18:53;;;;;;;41.30;34.30;;;;;;;4.03;73.59;100469.94;113177;1236;22035;-77
2023/04/07 06:21:22;;;;;;;31.60;28.40;;;;;;;4.06;73.70;100471.30;113492;1236;21897;-77
2023/04/07 06:23:52;;;;;;;35.00;28.30;;;;;;;4.10;73.73;100471.25;113204;1235;23029;-74
2023/04/07 06:26:21;;;;;;;27.80;24.80;;;;;;;4.14;73.74;100469.16;113459;1233;23713;-74
2023/04/07 06:28:51;;;;;;;28.60;25.60;;;;;;;4.16;73.75;100467.06;113448;1236;23012;-82
2023/04/07 06:31:21;;;;;;;26.70;24.00;;;;;;;4.18;73.75;100462.75;113194;1235;23723;-74
2023/04/07 06:33:53;;;;;;;25.90;23.20;;;;;;;4.23;73.72;100462.88;113488;1233;21980;-81
2023/04/07 06:36:22;;;;;;;23.40;21.20;;;;;;;4.25;73.58;100461.30;113798;1231;23655;-77
2023/04/07 06:38:54;;;;;;;;;;;;;;;4.26;73.59;100463.86;113629;1232;21915;-76
2023/04/07 06:41:23;;;;;;;24.50;22.00;;;;;;;4.21;73.80;100464.96;113763;1233;23659;-77
2023/04/07 06:43:53;;;;;;;26.20;23.20;;;;;;;4.24;73.80;100466.99;113210;1239;22693;-74
2023/04/07 06:46:22;;;;;;;28.70;25.60;;;;;;;4.28;73.73;100464.87;113211;1238;22161;-75
2023/04/07 06:48:51;;;;;;;28.40;25.50;;;;;;;4.31;73.69;100467.44;113099;1238;22047;-75
2023/04/07 06:51:21;;;;;;;33.30;27.30;;;;;;;4.34;73.67;100467.07;113198;1238;22294;-74
2023/04/07 06:53:50;;;;;;;31.40;28.30;;;;;;;4.36;73.61;100466.36;113026;1239;22936;-74
2023/04/07 06:56:21;;;;;;;28.20;25.50;;;;;;;4.38;73.61;100465.83;113206;1237;22785;-76
2023/04/07 06:58:50;;;;;;;31.70;28.10;;;;;;;4.40;73.63;100468.21;113241;1238;22098;-77
2023/04/07 07:01:20;;;;;;;33.70;30.20;;;;;;;4.43;73.64;100469.90;113203;1239;21935;-76
2023/04/07 07:03:49;;;;;;;32.30;29.30;;;;;;;4.46;73.63;100469.52;113014;1238;21951;-76
2023/04/07 07:06:19;;;;;;;34.30;29.80;;;;;;;4.50;73.71;100470.34;112372;1244;22950;-75
2023/04/07 07:08:48;;;;;;;32.90;29.50;;;;;;;4.57;73.81;100470.27;112721;1239;22585;-74
2023/04/07 07:11:17;;;;;;;34.80;31.20;;;;;;;4.61;73.74;100466.77;112828;1239;21940;-75
2023/04/07 07:13:46;;;;;;;32.60;29.30;;;;;;;4.64;73.69;100471.21;112653;1239;21951;-75
2023/04/07 07:16:16;;;;;;;32.30;29.10;;;;;;;4.65;73.55;100466.90;112853;1236;23280;-75
2023/04/07 07:18:45;;;;;;;32.60;29.40;;;;;;;4.68;73.55;100464.61;112554;1239;24272;-76
2023/04/07 07:21:17;;;;;;;31.40;28.30;;;;;;;4.74;73.75;100461.62;112840;1239;23686;-75
2023/04/07 07:23:48;;;;;;;33.20;29.60;;;;;;;4.78;73.70;100463.46;112930;1233;24280;-75
2023/04/07 07:26:18;;;;;;;33.70;29.70;;;;;;;4.82;73.55;100464.80;113630;1231;23677;-76
2023/04/07 07:28:47;;;;;;;30.70;27.40;;;;;;;4.86;73.56;100466.98;113531;1233;21965;-75
2023/04/07 07:31:17;;;;;;;30.30;26.30;;;;;;;4.89;73.64;100467.47;113695;1233;21953;-76
2023/04/07 07:33:48;;;;;;;31.50;25.80;;;;;;;4.92;73.44;100468.98;113603;1233;21950;-79
2023/04/07 07:36:18;;;;;;;27.10;24.50;;;;;;;4.96;73.53;100469.79;113677;1232;23665;-78
2023/04/07 07:38:51;;;;;;;29.90;26.90;;;;;;;5.01;73.54;100472.86;113649;1233;21964;-76
2023/04/07 07:41:21;;;;;;;27.70;24.90;;;;;;;5.03;73.46;100470.23;113747;1231;23806;-77
2023/04/07 07:43:50;;;;;;;27.80;25.00;;;;;;;5.08;73.49;100471.88;113564;1233;21944;-76
2023/04/07 07:46:19;;;;;;;25.80;23.40;;;;;;;5.12;73.24;100470.45;113459;1233;23604;-77
2023/04/07 07:48:48;;;;;;;25.60;23.20;;;;;;;5.14;73.19;100472.83;113736;1231;22219;-78
2023/04/07 07:51:17;;;;;;;22.20;20.00;;;;;;;5.14;73.02;100477.50;113566;1233;23006;-78
2023/04/07 07:53:47;;;;;;;23.60;21.40;;;;;;;5.12;72.99;100484.41;113752;1233;21951;-77
2023/04/07 07:56:16;;;;;;;24.40;22.10;;;;;;;5.14;73.14;100487.50;113616;1233;21955;-76
2023/04/07 07:58:46;;;;;;;27.20;24.60;;;;;;;5.16;73.13;100489.89;113350;1233;21974;-76
2023/04/07 08:01:15;;;;;;;28.50;25.70;;;;;;;5.18;73.13;100491.41;113782;1233;22959;-77
2023/04/07 08:03:44;;;;;;;27.90;25.10;;;;;;;5.21;73.12;100488.79;113637;1233;21961;-78
2023/04/07 08:06:15;;;;;;;25.60;23.20;;;;;;;5.26;73.14;100490.27;113605;1233;21931;-77
2023/04/07 08:08:45;;;;;;;24.50;22.20;;;;;;;5.28;72.99;100494.73;113419;1233;21940;-76
2023/04/07 08:11:14;;;;;;;25.70;23.30;;;;;;;5.32;72.99;100499.68;113660;1233;22110;-76
2023/04/07 08:13:45;;;;;;;24.60;22.10;;;;;;;5.35;73.03;100494.97;113715;1233;21943;-77
2023/04/07 08:16:15;;;;;;;23.60;21.30;;;;;;;5.37;72.86;100497.20;113688;1233;21946;-77
2023/04/07 08:18:44;;;;;;;21.80;19.80;;;;;;;5.38;72.74;100494.94;113629;1233;24429;-76
2023/04/07 08:21:14;;;;;;;23.30;21.00;;;;;;;5.37;72.74;100496.85;113784;1233;21915;-77
2023/04/07 08:23:43;;;;;;;23.10;20.80;;;;;;;5.41;73.00;100499.04;113599;1233;24100;-77
2023/04/07 08:26:12;;;;;;;21.80;19.80;;;;;;;5.47;73.03;100498.26;113729;1233;23687;-77
2023/04/07 08:28:42;;;;;;;23.10;20.80;;;;;;;5.54;73.07;100497.14;113687;1233;22034;-77
2023/04/07 08:31:12;;;;;;;19.80;17.90;;;;;;;5.59;73.01;100494.63;113735;1226;21929;-76
2023/04/07 08:33:42;;;;;;;18.20;16.70;;;;;;;5.62;72.87;100490.80;113701;1226;21921;-76
2023/04/07 08:36:12;;;;;;;25.60;23.40;;;;;;;5.60;72.62;100488.06;113765;1233;21929;-76
2023/04/07 08:38:41;;;;;;;22.40;20.40;;;;;;;5.62;72.72;100489.08;113693;1233;21951;-76
2023/04/07 08:41:23;;;;;;;22.50;20.40;;;;;;;5.64;72.69;100485.93;113713;1233;21901;-76
2023/04/07 08:43:55;;;;;;;21.80;19.80;;;;;;;5.64;72.69;100487.65;113714;1233;21985;-76
2023/04/07 08:46:28;;;;;;;22.90;20.60;;;;;;;5.67;72.64;100492.43;113689;1233;22056;-76
2023/04/07 08:49:01;;;;;;;19.90;18.00;;;;;;;5.70;72.57;100498.77;113705;1233;23431;-77
2023/04/07 08:51:32;;;;;;;16.90;15.40;;;;;;;5.74;72.60;100500.61;113767;1226;21940;-77
2023/04/07 08:54:15;;;;;;;17.10;15.60;;;;;;;5.77;72.57;100500.05;113826;1233;23023;-77
2023/04/07 08:56:44;;;;;;;;;;;;;;;5.78;72.44;100491.92;113653;1233;22150;-78
2023/04/07 08:59:24;;;;;;;16.90;15.40;;;;;;;5.66;72.50;100484.50;113620;1233;23692;-76
2023/04/07 09:01:55;;;;;;;18.30;16.60;;;;;;;5.68;72.47;100485.19;113818;1233;22169;-77
2023/04/07 09:04:26;;;;;;;20.20;18.20;;;;;;;5.71;72.44;100483.06;113823;1233;21960;-76
2023/04/07 09:06:56;;;;;;;16.30;14.90;;;;;;;5.75;72.35;100481.44;113183;1239;21945;-76
2023/04/07 09:09:25;;;;;;;16.40;15.00;;;;;;;5.77;72.23;100481.06;112917;1239;23006;-77
2023/04/07 09:11:55;;;;;;;16.90;15.30;;;;;;;5.79;72.17;100481.38;113285;1238;21946;-75
2023/04/07 09:14:25;;;;;;;16.90;15.30;;;;;;;5.82;72.25;100476.33;113195;1235;21944;-74
2023/04/07 09:16:55;;;;;;;18.70;17.00;;;;;;;5.85;72.34;100476.09;113166;1239;22072;-73
2023/04/07 09:19:27;;;;;;;18.00;16.30;;;;;;;5.91;72.34;100473.59;112836;1239;21941;-74
2023/04/07 09:22:11;;;;;;;18.00;16.30;;;;;;;5.95;72.35;100472.67;113037;1239;22414;-76
2023/04/07 09:24:41;;;;;;;18.10;16.40;;;;;;;6.01;72.38;100467.56;113117;1233;23060;-76
2023/04/07 09:27:17;;;;;;;17.30;15.70;;;;;;;6.08;72.25;100465.91;113658;1233;21981;-77
2023/04/07 09:29:50;;;;;;;19.10;17.20;;;;;;;6.11;72.16;100462.56;113496;1233;21939;-79
2023/04/07 09:32:37;;;;;;;18.40;16.60;;;;;;;6.16;72.09;100463.70;113774;1233;21932;-78
2023/04/07 09:35:08;;;;;;;17.10;15.50;;;;;;;6.22;72.13;100466.69;113656;1233;21984;-75
2023/04/07 09:37:38;;;;;;;19.30;17.30;;;;;;;6.27;72.16;100466.09;113762;1233;23055;-77
2023/04/07 09:40:08;;;;;;;23.00;20.70;;;;;;;6.34;72.21;100463.88;113864;1233;21999;-77
2023/04/07 09:42:47;;;;;;;19.40;17.40;;;;;;;6.41;72.06;100463.05;113747;1233;23659;-77
2023/04/07 09:45:43;;;;;;;16.50;14.90;;;;;;;6.46;71.90;100461.42;113745;1233;21918;-75
2023/04/07 09:48:21;;;;;;;16.80;15.20;;;;;;;6.46;71.87;100459.34;113973;1233;21954;-77
2023/04/07 09:50:50;;;;;;;16.50;14.90;;;;;;;6.49;71.85;100457.02;113565;1233;21930;-78
2023/04/07 09:53:40;;;;;;;17.70;16.10;;;;;;;6.52;71.67;100457.49;113515;1233;21969;-76
2023/04/07 09:56:10;;;;;;;15.50;14.10;;;;;;;6.53;71.54;100457.65;113726;1233;21959;-75
2023/04/07 09:58:40;;;;;;;16.00;14.50;;;;;;;6.54;71.36;100457.12;113726;1233;22060;-76
2023/04/07 10:01:10;;;;;;;16.30;14.80;;;;;;;6.55;71.45;100455.34;114098;1233;21970;-76
2023/04/07 10:03:43;;;;;;;49.90;44.80;;;;;;;6.55;71.40;100454.83;113759;1233;21976;-74
2023/04/07 10:06:13;;;;;;;40.10;35.90;;;;;;;6.60;71.49;100456.13;113718;1233;21943;-76
2023/04/07 10:08:43;;;;;;;18.30;16.70;;;;;;;6.64;71.45;100455.53;113633;1233;21942;-78
2023/04/07 10:11:14;;;;;;;18.40;16.70;;;;;;;6.64;71.36;100451.71;113734;1233;22452;-76
2023/04/07 10:13:44;;;;;;;19.30;17.20;;;;;;;6.66;71.43;100454.11;113703;1233;21957;-76
2023/04/07 10:16:15;;;;;;;19.00;17.20;;;;;;;6.70;71.50;100453.34;113997;1233;21988;-75
2023/04/07 10:18:45;;;;;;;18.80;17.10;;;;;;;6.72;71.32;100457.79;113858;1233;23597;-77
2023/04/07 10:21:16;;;;;;;20.30;18.40;;;;;;;6.71;71.14;100459.02;113689;1233;21935;-76
2023/04/07 10:24:04;;;;;;;19.30;17.50;;;;;;;6.72;71.34;100459.02;113581;1233;23591;-76
2023/04/07 10:26:37;;;;;;;21.20;19.20;;;;;;;6.69;71.31;100458.52;113670;1233;23560;-79
2023/04/07 10:29:26;;;;;;;20.60;18.60;;;;;;;6.67;71.19;100458.92;113723;1233;23007;-77
2023/04/07 10:32:01;;;;;;;17.00;15.30;;;;;;;6.65;71.06;100455.85;113895;1233;21944;-76
2023/04/07 10:34:49;;;;;;;21.00;18.80;;;;;;;6.64;71.09;100453.11;113653;1233;22039;-77
2023/04/07 10:37:22;;;;;;;22.10;20.00;;;;;;;6.63;71.33;100452.95;113644;1233;23650;-77
2023/04/07 10:40:17;;;;;;;20.80;18.70;;;;;;;6.64;71.30;100449.81;113629;1233;21966;-77
2023/04/07 10:42:48;;;;;;;20.70;18.70;;;;;;;6.60;71.19;100449.04;113792;1233;21987;-78
2023/04/07 10:45:58;;;;;;;22.30;20.10;;;;;;;6.54;71.22;100446.90;113718;1233;22019;-77
2023/04/07 10:48:31;;;;;;;22.60;20.30;;;;;;;6.49;71.37;100445.63;113559;1233;22010;-77
2023/04/07 10:51:06;;;;;;;22.80;20.50;;;;;;;6.45;71.21;100452.09;113795;1233;21965;-78
2023/04/07 10:53:57;;;;;;;24.60;22.20;;;;;;;6.38;71.28;100450.84;113709;1233;22008;-78
2023/04/07 10:57:02;;;;;;;24.60;22.00;;;;;;;6.32;71.44;100453.55;113726;1233;21946;-78
2023/04/07 11:00:10;;;;;;;24.30;21.90;;;;;;;6.27;71.59;100449.33;113946;1233;24282;-80
2023/04/07 11:02:40;;;;;;;26.70;22.70;;;;;;;6.21;71.69;100448.05;113330;1240;24324;-78
2023/04/07 11:05:22;;;;;;;22.60;20.30;;;;;;;6.16;71.64;100448.31;113151;1240;21976;-80
2023/04/07 11:07:57;;;;;;;22.90;20.50;;;;;;;6.13;71.85;100446.48;113127;1239;23691;-78
2023/04/07 11:10:32;;;;;;;24.00;21.50;;;;;;;6.10;71.93;100442.72;112946;1239;21954;-79
2023/04/07 11:13:06;;;;;;;;;;;;;;;6.10;72.12;100443.23;113266;1240;21934;-79
2023/04/07 11:15:37;;;;;;;20.70;18.60;;;;;;;6.01;72.31;100439.93;113104;1239;190852;-78
2023/04/07 11:18:16;;;;;;;21.70;19.40;;;;;;;5.94;72.20;100439.34;113202;1240;21952;-78
2023/04/07 11:21:00;;;;;;;23.10;20.80;;;;;;;5.90;72.30;100442.00;113248;1240;22162;-80
2023/04/07 11:23:36;;;;;;;23.20;20.80;;;;;;;5.89;72.61;100444.25;112933;1240;21935;-79
2023/04/07 11:26:14;;;;;;;25.00;22.40;;;;;;;5.92;72.68;100443.35;112834;1239;21939;-78
2023/04/07 11:29:00;;;;;;;26.10;23.40;;;;;;;5.91;72.74;100443.36;113125;1239;23580;-79
2023/04/07 11:31:40;;;;;;;26.40;23.60;;;;;;;5.91;72.83;100443.88;112985;1240;23677;-78
2023/04/07 11:34:13;;;;;;;24.40;21.90;;;;;;;5.97;73.07;100444.33;113206;1240;21948;-80
2023/04/07 11:36:47;;;;;;;19.70;17.90;;;;;;;6.03;73.20;100444.73;112713;1240;23562;-78